sensor_id;sensor_type;location;lat;lon;timestamp;P1;durP1;ratioP1;P2;durP2;ratioP2
64738;SDS011;51175;51.186;0.276;2022-12-18T00:00:03;37.08;;;21.95;;
64738;SDS011;51175;51.186;0.276;2022-12-18T00:00:39;41.47;;;23.83;;
64738;SDS011;51175;51.186;0.276;2022-12-18T00:01:57;41.72;;;23.52;;
64738;SDS011;51175;51.186;0.276;2022-12-18T00:02:31;38.70;;;24.05;;
64738;SDS011;51175;51.186;0.276;2022-12-18T00:03:01;36.17;;;22.02;;
64738;SDS011;51175;51.186;0.276;2022-12-18T00:03:35;37.53;;;21.50;;
64738;SDS011;51175;51.186;0.276;2022-12-18T00:04:06;39.17;;;22.63;;
64738;SDS011;51175;51.186;0.276;2022-12-18T00:04:43;38.13;;;21.52;;
64738;SDS011;51175;51.186;0.276;2022-12-18T00:05:13;35.42;;;22.77;;
64738;SDS011;51175;51.186;0.276;2022-12-18T00:05:47;35.38;;;22.02;;
64738;SDS011;51175;51.186;0.276;2022-12-18T00:06:18;36.35;;;19.55;;
64738;SDS011;51175;51.186;0.276;2022-12-18T00:06:49;36.65;;;21.00;;
64738;SDS011;51175;51.186;0.276;2022-12-18T00:07:20;35.63;;;21.05;;
64738;SDS011;51175;51.186;0.276;2022-12-18T00:07:50;34.17;;;19.58;;
64738;SDS011;51175;51.186;0.276;2022-12-18T00:08:21;35.28;;;21.67;;
64738;SDS011;51175;51.186;0.276;2022-12-18T00:08:51;37.67;;;21.83;;
64738;SDS011;51175;51.186;0.276;2022-12-18T00:09:22;35.83;;;20.40;;
64738;SDS011;51175;51.186;0.276;2022-12-18T00:09:52;35.28;;;20.42;;
64738;SDS011;51175;51.186;0.276;2022-12-18T00:10:23;36.70;;;21.20;;
64738;SDS011;51175;51.186;0.276;2022-12-18T00:10:53;37.53;;;22.13;;
64738;SDS011;51175;51.186;0.276;2022-12-18T00:11:24;37.47;;;21.55;;
64738;SDS011;51175;51.186;0.276;2022-12-18T00:11:57;34.33;;;22.13;;
64738;SDS011;51175;51.186;0.276;2022-12-18T00:12:27;34.92;;;22.63;;
64738;SDS011;51175;51.186;0.276;2022-12-18T00:12:57;32.45;;;20.25;;
64738;SDS011;51175;51.186;0.276;2022-12-18T00:13:28;34.50;;;20.48;;
64738;SDS011;51175;51.186;0.276;2022-12-18T00:13:59;34.55;;;20.80;;
64738;SDS011;51175;51.186;0.276;2022-12-18T00:14:29;34.95;;;20.88;;
64738;SDS011;51175;51.186;0.276;2022-12-18T00:15:00;37.05;;;21.13;;
64738;SDS011;51175;51.186;0.276;2022-12-18T00:15:30;41.28;;;22.42;;
64738;SDS011;51175;51.186;0.276;2022-12-18T00:16:04;35.22;;;20.50;;
64738;SDS011;51175;51.186;0.276;2022-12-18T00:16:37;34.85;;;20.15;;
64738;SDS011;51175;51.186;0.276;2022-12-18T00:17:07;38.00;;;21.63;;
64738;SDS011;51175;51.186;0.276;2022-12-18T00:17:38;36.08;;;21.48;;
64738;SDS011;51175;51.186;0.276;2022-12-18T00:18:09;33.70;;;19.83;;
64738;SDS011;51175;51.186;0.276;2022-12-18T00:18:40;35.90;;;21.83;;
64738;SDS011;51175;51.186;0.276;2022-12-18T00:19:11;31.40;;;19.65;;
64738;SDS011;51175;51.186;0.276;2022-12-18T00:19:42;36.17;;;20.23;;
64738;SDS011;51175;51.186;0.276;2022-12-18T00:20:12;33.80;;;19.77;;
64738;SDS011;51175;51.186;0.276;2022-12-18T00:20:43;34.03;;;20.52;;
64738;SDS011;51175;51.186;0.276;2022-12-18T00:21:13;37.05;;;21.20;;
64738;SDS011;51175;51.186;0.276;2022-12-18T00:21:44;37.28;;;20.23;;
64738;SDS011;51175;51.186;0.276;2022-12-18T00:22:15;32.83;;;20.50;;
64738;SDS011;51175;51.186;0.276;2022-12-18T00:22:48;31.50;;;20.42;;
64738;SDS011;51175;51.186;0.276;2022-12-18T00:23:18;36.50;;;21.85;;
64738;SDS011;51175;51.186;0.276;2022-12-18T00:23:49;35.88;;;20.15;;
64738;SDS011;51175;51.186;0.276;2022-12-18T00:24:20;36.28;;;19.98;;
64738;SDS011;51175;51.186;0.276;2022-12-18T00:24:50;36.92;;;21.20;;
64738;SDS011;51175;51.186;0.276;2022-12-18T00:25:21;33.63;;;20.80;;
64738;SDS011;51175;51.186;0.276;2022-12-18T00:25:51;37.40;;;21.23;;
64738;SDS011;51175;51.186;0.276;2022-12-18T00:26:23;36.35;;;21.00;;
64738;SDS011;51175;51.186;0.276;2022-12-18T00:27:00;34.33;;;21.63;;
64738;SDS011;51175;51.186;0.276;2022-12-18T00:27:31;32.17;;;19.35;;
64738;SDS011;51175;51.186;0.276;2022-12-18T00:28:02;33.55;;;18.58;;
64738;SDS011;51175;51.186;0.276;2022-12-18T00:28:33;34.30;;;18.65;;
64738;SDS011;51175;51.186;0.276;2022-12-18T00:29:13;30.27;;;18.38;;
64738;SDS011;51175;51.186;0.276;2022-12-18T00:29:43;32.65;;;20.20;;
64738;SDS011;51175;51.186;0.276;2022-12-18T00:30:14;33.30;;;19.85;;
64738;SDS011;51175;51.186;0.276;2022-12-18T00:30:44;29.98;;;18.83;;
64738;SDS011;51175;51.186;0.276;2022-12-18T00:31:16;32.50;;;18.85;;
64738;SDS011;51175;51.186;0.276;2022-12-18T00:31:49;35.58;;;20.92;;
64738;SDS011;51175;51.186;0.276;2022-12-18T00:32:19;33.28;;;18.65;;
64738;SDS011;51175;51.186;0.276;2022-12-18T00:32:52;30.05;;;18.08;;
64738;SDS011;51175;51.186;0.276;2022-12-18T00:33:23;34.05;;;19.73;;
64738;SDS011;51175;51.186;0.276;2022-12-18T00:33:54;32.10;;;18.45;;
64738;SDS011;51175;51.186;0.276;2022-12-18T00:34:25;31.98;;;18.70;;
64738;SDS011;51175;51.186;0.276;2022-12-18T00:34:56;33.53;;;20.95;;
64738;SDS011;51175;51.186;0.276;2022-12-18T00:35:26;33.78;;;19.50;;
64738;SDS011;51175;51.186;0.276;2022-12-18T00:36:00;31.40;;;19.13;;
64738;SDS011;51175;51.186;0.276;2022-12-18T00:36:33;31.92;;;19.33;;
64738;SDS011;51175;51.186;0.276;2022-12-18T00:37:04;33.42;;;20.17;;
64738;SDS011;51175;51.186;0.276;2022-12-18T00:37:34;30.45;;;18.35;;
64738;SDS011;51175;51.186;0.276;2022-12-18T00:38:05;30.38;;;18.85;;
64738;SDS011;51175;51.186;0.276;2022-12-18T00:38:36;35.25;;;18.42;;
64738;SDS011;51175;51.186;0.276;2022-12-18T00:39:09;31.90;;;18.50;;
64738;SDS011;51175;51.186;0.276;2022-12-18T00:39:40;29.95;;;17.92;;
64738;SDS011;51175;51.186;0.276;2022-12-18T00:40:11;33.40;;;19.48;;
64738;SDS011;51175;51.186;0.276;2022-12-18T00:40:42;29.88;;;18.17;;
64738;SDS011;51175;51.186;0.276;2022-12-18T00:41:13;30.95;;;18.20;;
64738;SDS011;51175;51.186;0.276;2022-12-18T00:42:04;28.73;;;17.05;;
64738;SDS011;51175;51.186;0.276;2022-12-18T00:42:53;30.60;;;16.55;;
64738;SDS011;51175;51.186;0.276;2022-12-18T00:43:27;32.63;;;18.42;;
64738;SDS011;51175;51.186;0.276;2022-12-18T00:43:57;30.63;;;19.05;;
64738;SDS011;51175;51.186;0.276;2022-12-18T00:44:28;27.45;;;16.10;;
64738;SDS011;51175;51.186;0.276;2022-12-18T00:44:58;34.67;;;20.83;;
64738;SDS011;51175;51.186;0.276;2022-12-18T00:45:29;31.25;;;18.75;;
64738;SDS011;51175;51.186;0.276;2022-12-18T00:46:01;31.65;;;18.02;;
64738;SDS011;51175;51.186;0.276;2022-12-18T00:46:31;30.92;;;18.33;;
64738;SDS011;51175;51.186;0.276;2022-12-18T00:47:02;30.65;;;17.27;;
64738;SDS011;51175;51.186;0.276;2022-12-18T00:47:32;28.80;;;17.52;;
64738;SDS011;51175;51.186;0.276;2022-12-18T00:48:03;34.78;;;18.17;;
64738;SDS011;51175;51.186;0.276;2022-12-18T00:48:33;26.48;;;16.25;;
64738;SDS011;51175;51.186;0.276;2022-12-18T00:49:04;28.02;;;17.02;;
64738;SDS011;51175;51.186;0.276;2022-12-18T00:49:34;30.08;;;18.15;;
64738;SDS011;51175;51.186;0.276;2022-12-18T00:50:05;27.25;;;16.85;;
64738;SDS011;51175;51.186;0.276;2022-12-18T00:50:36;28.85;;;16.02;;
64738;SDS011;51175;51.186;0.276;2022-12-18T00:51:06;29.58;;;17.48;;
64738;SDS011;51175;51.186;0.276;2022-12-18T00:51:38;27.63;;;15.60;;
64738;SDS011;51175;51.186;0.276;2022-12-18T00:52:09;31.75;;;17.17;;
64738;SDS011;51175;51.186;0.276;2022-12-18T00:52:39;26.65;;;16.40;;
64738;SDS011;51175;51.186;0.276;2022-12-18T00:53:11;29.92;;;16.88;;
64738;SDS011;51175;51.186;0.276;2022-12-18T00:53:41;25.95;;;16.27;;
64738;SDS011;51175;51.186;0.276;2022-12-18T00:54:12;28.83;;;17.17;;
64738;SDS011;51175;51.186;0.276;2022-12-18T00:54:42;28.63;;;16.65;;
64738;SDS011;51175;51.186;0.276;2022-12-18T00:55:12;25.02;;;14.65;;
64738;SDS011;51175;51.186;0.276;2022-12-18T00:55:43;26.25;;;16.58;;
64738;SDS011;51175;51.186;0.276;2022-12-18T00:56:15;25.02;;;15.63;;
64738;SDS011;51175;51.186;0.276;2022-12-18T00:56:45;25.80;;;16.20;;
64738;SDS011;51175;51.186;0.276;2022-12-18T00:57:16;25.48;;;16.23;;
64738;SDS011;51175;51.186;0.276;2022-12-18T00:57:46;25.50;;;16.05;;
64738;SDS011;51175;51.186;0.276;2022-12-18T00:58:17;25.83;;;16.10;;
64738;SDS011;51175;51.186;0.276;2022-12-18T00:58:47;22.65;;;14.90;;
64738;SDS011;51175;51.186;0.276;2022-12-18T00:59:18;25.55;;;16.10;;
64738;SDS011;51175;51.186;0.276;2022-12-18T00:59:49;24.50;;;16.05;;
64738;SDS011;51175;51.186;0.276;2022-12-18T01:00:19;27.35;;;14.27;;
64738;SDS011;51175;51.186;0.276;2022-12-18T01:00:50;23.27;;;14.82;;
64738;SDS011;51175;51.186;0.276;2022-12-18T01:01:20;24.38;;;16.17;;
64738;SDS011;51175;51.186;0.276;2022-12-18T01:01:51;26.60;;;16.95;;
64738;SDS011;51175;51.186;0.276;2022-12-18T01:02:21;23.77;;;14.90;;
64738;SDS011;51175;51.186;0.276;2022-12-18T01:02:52;26.38;;;14.82;;
64738;SDS011;51175;51.186;0.276;2022-12-18T01:03:22;25.60;;;15.50;;
64738;SDS011;51175;51.186;0.276;2022-12-18T01:03:52;26.10;;;17.10;;
64738;SDS011;51175;51.186;0.276;2022-12-18T01:04:23;23.08;;;14.52;;
64738;SDS011;51175;51.186;0.276;2022-12-18T01:04:53;24.35;;;14.88;;
64738;SDS011;51175;51.186;0.276;2022-12-18T01:05:23;24.95;;;15.95;;
64738;SDS011;51175;51.186;0.276;2022-12-18T01:05:54;25.88;;;16.85;;
64738;SDS011;51175;51.186;0.276;2022-12-18T01:06:24;26.67;;;15.57;;
64738;SDS011;51175;51.186;0.276;2022-12-18T01:06:55;21.92;;;13.23;;
64738;SDS011;51175;51.186;0.276;2022-12-18T01:07:25;23.83;;;14.10;;
64738;SDS011;51175;51.186;0.276;2022-12-18T01:07:56;24.67;;;15.00;;
64738;SDS011;51175;51.186;0.276;2022-12-18T01:08:26;26.17;;;15.57;;
64738;SDS011;51175;51.186;0.276;2022-12-18T01:08:57;24.42;;;15.05;;
64738;SDS011;51175;51.186;0.276;2022-12-18T01:09:27;22.38;;;14.30;;
64738;SDS011;51175;51.186;0.276;2022-12-18T01:09:58;23.33;;;15.15;;
64738;SDS011;51175;51.186;0.276;2022-12-18T01:10:29;22.63;;;14.35;;
64738;SDS011;51175;51.186;0.276;2022-12-18T01:10:59;25.95;;;16.05;;
64738;SDS011;51175;51.186;0.276;2022-12-18T01:11:31;22.17;;;13.98;;
64738;SDS011;51175;51.186;0.276;2022-12-18T01:12:01;21.63;;;13.65;;
64738;SDS011;51175;51.186;0.276;2022-12-18T01:12:32;23.02;;;14.35;;
64738;SDS011;51175;51.186;0.276;2022-12-18T01:13:03;25.63;;;14.70;;
64738;SDS011;51175;51.186;0.276;2022-12-18T01:13:33;23.30;;;14.93;;
64738;SDS011;51175;51.186;0.276;2022-12-18T01:14:03;24.15;;;14.60;;
64738;SDS011;51175;51.186;0.276;2022-12-18T01:14:34;24.10;;;14.57;;
64738;SDS011;51175;51.186;0.276;2022-12-18T01:15:05;24.50;;;15.18;;
64738;SDS011;51175;51.186;0.276;2022-12-18T01:15:36;24.33;;;15.75;;
64738;SDS011;51175;51.186;0.276;2022-12-18T01:16:07;23.17;;;13.77;;
64738;SDS011;51175;51.186;0.276;2022-12-18T01:16:38;26.45;;;14.27;;
64738;SDS011;51175;51.186;0.276;2022-12-18T01:17:09;23.40;;;14.88;;
64738;SDS011;51175;51.186;0.276;2022-12-18T01:17:39;23.10;;;14.98;;
64738;SDS011;51175;51.186;0.276;2022-12-18T01:18:10;27.33;;;15.20;;
64738;SDS011;51175;51.186;0.276;2022-12-18T01:18:40;25.45;;;15.60;;
64738;SDS011;51175;51.186;0.276;2022-12-18T01:19:11;21.65;;;14.40;;
64738;SDS011;51175;51.186;0.276;2022-12-18T01:19:41;21.15;;;13.05;;
64738;SDS011;51175;51.186;0.276;2022-12-18T01:20:12;26.83;;;16.40;;
64738;SDS011;51175;51.186;0.276;2022-12-18T01:20:43;22.52;;;13.95;;
64738;SDS011;51175;51.186;0.276;2022-12-18T01:21:14;21.45;;;13.68;;
64738;SDS011;51175;51.186;0.276;2022-12-18T01:21:46;20.58;;;13.50;;
64738;SDS011;51175;51.186;0.276;2022-12-18T01:22:16;20.52;;;12.77;;
64738;SDS011;51175;51.186;0.276;2022-12-18T01:22:46;22.00;;;14.63;;
64738;SDS011;51175;51.186;0.276;2022-12-18T01:23:17;19.98;;;13.48;;
64738;SDS011;51175;51.186;0.276;2022-12-18T01:23:50;22.00;;;14.35;;
64738;SDS011;51175;51.186;0.276;2022-12-18T01:24:22;22.65;;;13.93;;
64738;SDS011;51175;51.186;0.276;2022-12-18T01:24:52;26.33;;;14.02;;
64738;SDS011;51175;51.186;0.276;2022-12-18T01:25:23;22.60;;;14.02;;
64738;SDS011;51175;51.186;0.276;2022-12-18T01:25:53;20.75;;;13.73;;
64738;SDS011;51175;51.186;0.276;2022-12-18T01:26:24;22.15;;;13.38;;
64738;SDS011;51175;51.186;0.276;2022-12-18T01:26:55;21.85;;;14.23;;
64738;SDS011;51175;51.186;0.276;2022-12-18T01:27:27;21.65;;;13.60;;
64738;SDS011;51175;51.186;0.276;2022-12-18T01:27:57;22.25;;;13.45;;
64738;SDS011;51175;51.186;0.276;2022-12-18T01:28:27;22.63;;;12.65;;
64738;SDS011;51175;51.186;0.276;2022-12-18T01:28:58;19.58;;;12.57;;
64738;SDS011;51175;51.186;0.276;2022-12-18T01:29:28;21.90;;;13.23;;
64738;SDS011;51175;51.186;0.276;2022-12-18T01:29:59;19.63;;;12.38;;
64738;SDS011;51175;51.186;0.276;2022-12-18T01:30:29;19.50;;;13.57;;
64738;SDS011;51175;51.186;0.276;2022-12-18T01:31:10;21.08;;;13.15;;
64738;SDS011;51175;51.186;0.276;2022-12-18T01:32:11;23.13;;;13.37;;
64738;SDS011;51175;51.186;0.276;2022-12-18T01:32:41;22.20;;;12.50;;
64738;SDS011;51175;51.186;0.276;2022-12-18T01:33:12;24.83;;;14.52;;
64738;SDS011;51175;51.186;0.276;2022-12-18T01:33:43;22.50;;;13.32;;
64738;SDS011;51175;51.186;0.276;2022-12-18T01:34:13;23.10;;;15.13;;
64738;SDS011;51175;51.186;0.276;2022-12-18T01:34:44;22.90;;;13.98;;
64738;SDS011;51175;51.186;0.276;2022-12-18T01:35:15;22.33;;;14.68;;
64738;SDS011;51175;51.186;0.276;2022-12-18T01:35:45;22.27;;;13.73;;
64738;SDS011;51175;51.186;0.276;2022-12-18T01:36:17;20.40;;;12.32;;
64738;SDS011;51175;51.186;0.276;2022-12-18T01:36:47;22.95;;;14.35;;
64738;SDS011;51175;51.186;0.276;2022-12-18T01:37:18;20.73;;;13.20;;
64738;SDS011;51175;51.186;0.276;2022-12-18T01:37:48;23.63;;;13.55;;
64738;SDS011;51175;51.186;0.276;2022-12-18T01:38:19;20.60;;;13.25;;
64738;SDS011;51175;51.186;0.276;2022-12-18T01:38:49;20.52;;;12.90;;
64738;SDS011;51175;51.186;0.276;2022-12-18T01:39:21;21.15;;;12.68;;
64738;SDS011;51175;51.186;0.276;2022-12-18T01:39:52;23.20;;;14.80;;
64738;SDS011;51175;51.186;0.276;2022-12-18T01:40:25;20.58;;;12.80;;
64738;SDS011;51175;51.186;0.276;2022-12-18T01:40:59;21.67;;;14.25;;
64738;SDS011;51175;51.186;0.276;2022-12-18T01:41:31;22.65;;;14.55;;
64738;SDS011;51175;51.186;0.276;2022-12-18T01:42:21;22.65;;;13.07;;
64738;SDS011;51175;51.186;0.276;2022-12-18T01:42:52;20.40;;;12.40;;
64738;SDS011;51175;51.186;0.276;2022-12-18T01:43:40;22.00;;;14.05;;
64738;SDS011;51175;51.186;0.276;2022-12-18T01:45:30;19.92;;;12.90;;
64738;SDS011;51175;51.186;0.276;2022-12-18T01:46:02;19.33;;;11.93;;
64738;SDS011;51175;51.186;0.276;2022-12-18T01:46:33;22.80;;;14.10;;
64738;SDS011;51175;51.186;0.276;2022-12-18T01:47:03;20.70;;;12.57;;
64738;SDS011;51175;51.186;0.276;2022-12-18T01:48:13;19.55;;;11.68;;
64738;SDS011;51175;51.186;0.276;2022-12-18T01:48:44;19.75;;;12.63;;
64738;SDS011;51175;51.186;0.276;2022-12-18T01:49:16;19.02;;;12.52;;
64738;SDS011;51175;51.186;0.276;2022-12-18T01:49:47;21.42;;;13.20;;
64738;SDS011;51175;51.186;0.276;2022-12-18T01:50:31;19.90;;;11.70;;
64738;SDS011;51175;51.186;0.276;2022-12-18T01:51:04;21.70;;;14.38;;
64738;SDS011;51175;51.186;0.276;2022-12-18T01:51:34;23.15;;;13.57;;
64738;SDS011;51175;51.186;0.276;2022-12-18T01:52:05;21.70;;;12.85;;
64738;SDS011;51175;51.186;0.276;2022-12-18T01:52:35;23.45;;;13.15;;
64738;SDS011;51175;51.186;0.276;2022-12-18T01:53:09;21.00;;;13.13;;
64738;SDS011;51175;51.186;0.276;2022-12-18T01:53:48;19.38;;;12.60;;
64738;SDS011;51175;51.186;0.276;2022-12-18T01:54:19;21.70;;;13.15;;
64738;SDS011;51175;51.186;0.276;2022-12-18T01:54:50;18.83;;;11.57;;
64738;SDS011;51175;51.186;0.276;2022-12-18T01:55:23;21.95;;;14.52;;
64738;SDS011;51175;51.186;0.276;2022-12-18T01:55:57;20.23;;;12.68;;
64738;SDS011;51175;51.186;0.276;2022-12-18T01:56:29;20.63;;;12.60;;
64738;SDS011;51175;51.186;0.276;2022-12-18T01:56:59;20.10;;;13.45;;
64738;SDS011;51175;51.186;0.276;2022-12-18T01:57:31;21.35;;;14.20;;
64738;SDS011;51175;51.186;0.276;2022-12-18T01:58:02;20.23;;;12.85;;
64738;SDS011;51175;51.186;0.276;2022-12-18T01:59:21;19.35;;;12.20;;
64738;SDS011;51175;51.186;0.276;2022-12-18T01:59:52;18.33;;;12.57;;
64738;SDS011;51175;51.186;0.276;2022-12-18T02:00:27;24.13;;;13.52;;
64738;SDS011;51175;51.186;0.276;2022-12-18T02:00:58;21.42;;;13.45;;
64738;SDS011;51175;51.186;0.276;2022-12-18T02:01:28;19.85;;;12.38;;
64738;SDS011;51175;51.186;0.276;2022-12-18T02:02:00;21.73;;;13.63;;
64738;SDS011;51175;51.186;0.276;2022-12-18T02:02:32;21.55;;;12.27;;
64738;SDS011;51175;51.186;0.276;2022-12-18T02:03:02;23.95;;;14.63;;
64738;SDS011;51175;51.186;0.276;2022-12-18T02:03:33;20.80;;;13.35;;
64738;SDS011;51175;51.186;0.276;2022-12-18T02:05:03;18.27;;;11.43;;
64738;SDS011;51175;51.186;0.276;2022-12-18T02:06:55;19.55;;;12.35;;
64738;SDS011;51175;51.186;0.276;2022-12-18T02:08:26;20.90;;;12.00;;
64738;SDS011;51175;51.186;0.276;2022-12-18T02:09:43;21.20;;;13.00;;
64738;SDS011;51175;51.186;0.276;2022-12-18T02:10:24;21.02;;;13.07;;
64738;SDS011;51175;51.186;0.276;2022-12-18T02:13:11;18.95;;;11.30;;
64738;SDS011;51175;51.186;0.276;2022-12-18T02:17:39;18.92;;;10.95;;
64738;SDS011;51175;51.186;0.276;2022-12-18T02:18:24;20.45;;;11.45;;
64738;SDS011;51175;51.186;0.276;2022-12-18T02:18:59;19.58;;;12.30;;
64738;SDS011;51175;51.186;0.276;2022-12-18T02:21:48;20.75;;;12.52;;
64738;SDS011;51175;51.186;0.276;2022-12-18T02:22:29;19.20;;;10.95;;
64738;SDS011;51175;51.186;0.276;2022-12-18T02:23:46;20.98;;;11.15;;
64738;SDS011;51175;51.186;0.276;2022-12-18T02:24:46;20.55;;;13.40;;
64738;SDS011;51175;51.186;0.276;2022-12-18T02:26:58;19.92;;;11.32;;
64738;SDS011;51175;51.186;0.276;2022-12-18T02:27:32;19.73;;;11.45;;
64738;SDS011;51175;51.186;0.276;2022-12-18T02:28:04;20.52;;;12.32;;
64738;SDS011;51175;51.186;0.276;2022-12-18T02:28:46;20.40;;;12.07;;
64738;SDS011;51175;51.186;0.276;2022-12-18T02:29:26;18.60;;;11.40;;
64738;SDS011;51175;51.186;0.276;2022-12-18T02:30:03;15.10;;;10.00;;
64738;SDS011;51175;51.186;0.276;2022-12-18T02:30:35;18.17;;;11.13;;
64738;SDS011;51175;51.186;0.276;2022-12-18T02:31:10;19.52;;;11.40;;
64738;SDS011;51175;51.186;0.276;2022-12-18T02:31:49;20.45;;;12.77;;
64738;SDS011;51175;51.186;0.276;2022-12-18T02:32:27;18.77;;;10.85;;
64738;SDS011;51175;51.186;0.276;2022-12-18T02:33:00;19.25;;;11.95;;
64738;SDS011;51175;51.186;0.276;2022-12-18T02:33:33;17.50;;;10.35;;
64738;SDS011;51175;51.186;0.276;2022-12-18T02:34:05;20.70;;;12.60;;
64738;SDS011;51175;51.186;0.276;2022-12-18T02:34:39;18.85;;;10.98;;
64738;SDS011;51175;51.186;0.276;2022-12-18T02:35:12;19.25;;;11.43;;
64738;SDS011;51175;51.186;0.276;2022-12-18T02:35:45;15.20;;;10.27;;
64738;SDS011;51175;51.186;0.276;2022-12-18T02:36:16;19.88;;;11.98;;
64738;SDS011;51175;51.186;0.276;2022-12-18T02:36:48;19.40;;;12.82;;
64738;SDS011;51175;51.186;0.276;2022-12-18T02:37:21;18.00;;;11.95;;
64738;SDS011;51175;51.186;0.276;2022-12-18T02:37:54;21.15;;;13.15;;
64738;SDS011;51175;51.186;0.276;2022-12-18T02:38:25;17.25;;;10.98;;
64738;SDS011;51175;51.186;0.276;2022-12-18T02:38:59;18.35;;;11.40;;
64738;SDS011;51175;51.186;0.276;2022-12-18T02:39:32;17.05;;;10.85;;
64738;SDS011;51175;51.186;0.276;2022-12-18T02:40:04;18.90;;;12.05;;
64738;SDS011;51175;51.186;0.276;2022-12-18T02:40:35;17.00;;;10.95;;
64738;SDS011;51175;51.186;0.276;2022-12-18T02:41:08;18.52;;;11.52;;
64738;SDS011;51175;51.186;0.276;2022-12-18T02:41:41;18.05;;;12.40;;
64738;SDS011;51175;51.186;0.276;2022-12-18T02:42:12;17.98;;;10.63;;
64738;SDS011;51175;51.186;0.276;2022-12-18T02:42:43;19.83;;;12.05;;
64738;SDS011;51175;51.186;0.276;2022-12-18T02:43:14;19.70;;;11.88;;
64738;SDS011;51175;51.186;0.276;2022-12-18T02:43:49;16.95;;;10.52;;
64738;SDS011;51175;51.186;0.276;2022-12-18T02:44:25;17.50;;;11.00;;
64738;SDS011;51175;51.186;0.276;2022-12-18T02:44:56;18.98;;;11.23;;
64738;SDS011;51175;51.186;0.276;2022-12-18T02:45:26;20.08;;;11.63;;
64738;SDS011;51175;51.186;0.276;2022-12-18T02:45:57;15.43;;;10.30;;
64738;SDS011;51175;51.186;0.276;2022-12-18T02:46:34;16.95;;;11.73;;
64738;SDS011;51175;51.186;0.276;2022-12-18T02:47:08;19.35;;;11.85;;
64738;SDS011;51175;51.186;0.276;2022-12-18T02:47:41;19.17;;;11.25;;
64738;SDS011;51175;51.186;0.276;2022-12-18T02:48:15;20.23;;;11.65;;
64738;SDS011;51175;51.186;0.276;2022-12-18T02:48:47;21.63;;;12.65;;
64738;SDS011;51175;51.186;0.276;2022-12-18T02:49:22;16.73;;;10.00;;
64738;SDS011;51175;51.186;0.276;2022-12-18T02:50:20;17.73;;;11.15;;
64738;SDS011;51175;51.186;0.276;2022-12-18T02:51:59;19.15;;;10.23;;
64738;SDS011;51175;51.186;0.276;2022-12-18T02:54:06;18.88;;;11.55;;
64738;SDS011;51175;51.186;0.276;2022-12-18T02:54:46;20.55;;;11.20;;
64738;SDS011;51175;51.186;0.276;2022-12-18T02:56:28;20.25;;;11.35;;
64738;SDS011;51175;51.186;0.276;2022-12-18T02:57:16;18.85;;;11.05;;
64738;SDS011;51175;51.186;0.276;2022-12-18T02:59:30;19.77;;;11.43;;
64738;SDS011;51175;51.186;0.276;2022-12-18T03:00:16;17.20;;;10.57;;
64738;SDS011;51175;51.186;0.276;2022-12-18T03:01:10;15.10;;;9.85;;
64738;SDS011;51175;51.186;0.276;2022-12-18T03:02:32;17.55;;;10.38;;
64738;SDS011;51175;51.186;0.276;2022-12-18T03:03:20;18.70;;;10.95;;
64738;SDS011;51175;51.186;0.276;2022-12-18T03:03:55;19.05;;;11.15;;
64738;SDS011;51175;51.186;0.276;2022-12-18T03:04:38;19.15;;;10.98;;
64738;SDS011;51175;51.186;0.276;2022-12-18T03:05:17;18.15;;;10.25;;
64738;SDS011;51175;51.186;0.276;2022-12-18T03:05:57;18.70;;;10.85;;
64738;SDS011;51175;51.186;0.276;2022-12-18T03:06:38;19.13;;;12.20;;
64738;SDS011;51175;51.186;0.276;2022-12-18T03:07:15;17.90;;;10.50;;
64738;SDS011;51175;51.186;0.276;2022-12-18T03:07:58;18.92;;;10.70;;
64738;SDS011;51175;51.186;0.276;2022-12-18T03:08:35;18.67;;;11.23;;
64738;SDS011;51175;51.186;0.276;2022-12-18T03:09:11;18.58;;;12.00;;
64738;SDS011;51175;51.186;0.276;2022-12-18T03:09:46;18.75;;;11.63;;
64738;SDS011;51175;51.186;0.276;2022-12-18T03:10:22;17.83;;;10.40;;
64738;SDS011;51175;51.186;0.276;2022-12-18T03:10:58;18.60;;;11.45;;
64738;SDS011;51175;51.186;0.276;2022-12-18T03:11:33;18.25;;;10.88;;
64738;SDS011;51175;51.186;0.276;2022-12-18T03:12:28;18.13;;;10.38;;
64738;SDS011;51175;51.186;0.276;2022-12-18T03:13:03;16.65;;;10.32;;
64738;SDS011;51175;51.186;0.276;2022-12-18T03:14:22;17.35;;;9.98;;
64738;SDS011;51175;51.186;0.276;2022-12-18T03:15:08;17.17;;;10.60;;
64738;SDS011;51175;51.186;0.276;2022-12-18T03:15:42;19.08;;;11.02;;
64738;SDS011;51175;51.186;0.276;2022-12-18T03:16:17;17.35;;;9.88;;
64738;SDS011;51175;51.186;0.276;2022-12-18T03:16:53;17.45;;;10.40;;
64738;SDS011;51175;51.186;0.276;2022-12-18T03:17:27;19.15;;;12.05;;
64738;SDS011;51175;51.186;0.276;2022-12-18T03:18:03;16.60;;;9.93;;
64738;SDS011;51175;51.186;0.276;2022-12-18T03:19:19;17.83;;;10.52;;
64738;SDS011;51175;51.186;0.276;2022-12-18T03:19:52;17.65;;;9.75;;
64738;SDS011;51175;51.186;0.276;2022-12-18T03:20:28;18.27;;;10.23;;
64738;SDS011;51175;51.186;0.276;2022-12-18T03:21:03;18.20;;;10.55;;
64738;SDS011;51175;51.186;0.276;2022-12-18T03:21:40;16.05;;;10.45;;
64738;SDS011;51175;51.186;0.276;2022-12-18T03:22:18;17.55;;;9.73;;
64738;SDS011;51175;51.186;0.276;2022-12-18T03:22:51;16.52;;;10.30;;
64738;SDS011;51175;51.186;0.276;2022-12-18T03:23:29;15.05;;;10.65;;
64738;SDS011;51175;51.186;0.276;2022-12-18T03:24:07;16.88;;;10.23;;
64738;SDS011;51175;51.186;0.276;2022-12-18T03:24:41;16.48;;;10.00;;
64738;SDS011;51175;51.186;0.276;2022-12-18T03:25:13;15.85;;;9.80;;
64738;SDS011;51175;51.186;0.276;2022-12-18T03:25:44;17.88;;;10.98;;
64738;SDS011;51175;51.186;0.276;2022-12-18T03:26:19;17.85;;;10.52;;
64738;SDS011;51175;51.186;0.276;2022-12-18T03:26:52;16.45;;;10.85;;
64738;SDS011;51175;51.186;0.276;2022-12-18T03:27:27;18.25;;;10.48;;
64738;SDS011;51175;51.186;0.276;2022-12-18T03:28:00;17.02;;;10.82;;
64738;SDS011;51175;51.186;0.276;2022-12-18T03:28:37;16.77;;;9.90;;
64738;SDS011;51175;51.186;0.276;2022-12-18T03:29:22;15.60;;;10.02;;
64738;SDS011;51175;51.186;0.276;2022-12-18T03:30:41;16.20;;;10.13;;
64738;SDS011;51175;51.186;0.276;2022-12-18T03:31:14;15.50;;;10.00;;
64738;SDS011;51175;51.186;0.276;2022-12-18T03:31:47;16.23;;;10.48;;
64738;SDS011;51175;51.186;0.276;2022-12-18T03:32:24;15.05;;;10.05;;
64738;SDS011;51175;51.186;0.276;2022-12-18T03:33:05;14.50;;;8.98;;
64738;SDS011;51175;51.186;0.276;2022-12-18T03:33:52;16.73;;;9.85;;
64738;SDS011;51175;51.186;0.276;2022-12-18T03:34:23;15.98;;;9.25;;
64738;SDS011;51175;51.186;0.276;2022-12-18T03:35:00;16.00;;;9.73;;
64738;SDS011;51175;51.186;0.276;2022-12-18T03:35:38;14.90;;;9.43;;
64738;SDS011;51175;51.186;0.276;2022-12-18T03:36:14;15.98;;;9.88;;
64738;SDS011;51175;51.186;0.276;2022-12-18T03:36:45;16.95;;;10.50;;
64738;SDS011;51175;51.186;0.276;2022-12-18T03:37:15;15.85;;;9.23;;
64738;SDS011;51175;51.186;0.276;2022-12-18T03:37:46;15.38;;;10.45;;
64738;SDS011;51175;51.186;0.276;2022-12-18T03:38:16;15.02;;;9.60;;
64738;SDS011;51175;51.186;0.276;2022-12-18T03:38:47;15.73;;;10.70;;
64738;SDS011;51175;51.186;0.276;2022-12-18T03:39:18;15.75;;;10.82;;
64738;SDS011;51175;51.186;0.276;2022-12-18T03:39:49;15.75;;;10.43;;
64738;SDS011;51175;51.186;0.276;2022-12-18T03:40:21;16.65;;;10.57;;